Time;durP1;ratioP1;P1;durP2;ratioP2;P2;SDS_P1;SDS_P2;PMS_P1;PMS_P2;Temp;Humidity;BMP_temperature;BMP_pressure;BME280_temperature;BME280_humidity;BME280_pressure;Samples;Min_cycle;Max_cycle;Signal;HPM_P1;HPM_P2
2020/12/07 00:02:35;;;;;;;94.77;26.20;;;;;;;;;;5058342;28;20365;-81
2020/12/07 00:05:40;;;;;;;100.47;27.50;;;;;;;;;;5065608;28;20867;-82
2020/12/07 00:08:45;;;;;;;90.43;25.47;;;;;;;;;;5063236;28;20199;-82
2020/12/07 00:11:50;;;;;;;101.33;25.63;;;;;;;;;;5063753;28;20281;-79
2020/12/07 00:14:55;;;;;;;99.10;26.77;;;;;;;;;;5055253;28;20238;-79
2020/12/07 00:18:01;;;;;;;92.07;27.03;;;;;;;;;;5054754;28;20203;-79
2020/12/07 00:21:08;;;;;;;90.13;26.33;;;;;;;;;;5055043;28;20198;-79
2020/12/07 00:24:13;;;;;;;100.47;27.87;;;;;;;;;;5068690;28;20222;-82
2020/12/07 00:27:22;;;;;;;102.80;28.00;;;;;;;;;;5075894;28;20486;-81
2020/12/07 00:30:27;;;;;;;97.10;26.10;;;;;;;;;;5062603;28;20211;-81
2020/12/07 00:33:33;;;;;;;106.77;26.77;;;;;;;;;;5058113;28;20223;-81
2020/12/07 00:36:38;;;;;;;101.03;26.30;;;;;;;;;;5055976;28;20292;-81
2020/12/07 00:39:42;;;;;;;95.10;26.30;;;;;;;;;;5074736;28;20299;-82
2020/12/07 00:42:47;;;;;;;103.17;27.53;;;;;;;;;;5069974;28;20222;-82
2020/12/07 00:45:52;;;;;;;105.30;26.43;;;;;;;;;;5065590;28;20207;-79
2020/12/07 00:48:58;;;;;;;91.10;26.20;;;;;;;;;;5057488;28;20643;-80
2020/12/07 00:52:02;;;;;;;95.07;26.90;;;;;;;;;;5060506;28;20203;-80
2020/12/07 00:55:07;;;;;;;96.10;25.83;;;;;;;;;;5062548;28;20214;-80
2020/12/07 00:58:12;;;;;;;99.27;26.50;;;;;;;;;;5059054;28;20283;-80
2020/12/07 01:01:16;;;;;;;93.17;25.77;;;;;;;;;;5062227;28;20260;-80
2020/12/07 01:04:22;;;;;;;97.20;26.40;;;;;;;;;;5059008;28;20589;-79
2020/12/07 01:07:28;;;;;;;96.83;25.17;;;;;;;;;;5071252;28;20273;-81
2020/12/07 01:10:33;;;;;;;105.53;28.43;;;;;;;;;;5064360;28;20289;-80
2020/12/07 01:13:39;;;;;;;95.93;27.23;;;;;;;;;;5083832;28;20230;-80
2020/12/07 01:16:43;;;;;;;104.73;26.43;;;;;;;;;;5071980;28;20219;-79
2020/12/07 01:19:52;;;;;;;106.73;27.37;;;;;;;;;;5074325;28;20277;-79
2020/12/07 01:23:02;;;;;;;102.07;27.50;;;;;;;;;;5071744;28;20637;-79
2020/12/07 01:26:08;;;;;;;93.67;27.50;;;;;;;;;;5059380;28;20260;-80
2020/12/07 01:29:12;;;;;;;103.30;27.07;;;;;;;;;;5063018;28;20199;-80
2020/12/07 01:32:19;;;;;;;100.10;27.33;;;;;;;;;;5061218;28;20214;-80
2020/12/07 01:35:25;;;;;;;101.67;26.70;;;;;;;;;;5062445;28;20199;-81
2020/12/07 01:38:30;;;;;;;97.80;26.10;;;;;;;;;;5060869;28;20237;-80
2020/12/07 01:41:35;;;;;;;101.53;26.20;;;;;;;;;;5055919;28;20203;-81
2020/12/07 01:44:40;;;;;;;92.83;25.10;;;;;;;;;;5068678;28;20202;-81
2020/12/07 01:47:44;;;;;;;82.70;25.20;;;;;;;;;;5071303;28;20573;-79
2020/12/07 01:50:53;;;;;;;86.87;24.67;;;;;;;;;;5072194;28;20211;-79
2020/12/07 01:53:58;;;;;;;91.83;24.27;;;;;;;;;;5073189;28;20243;-80
2020/12/07 01:57:03;;;;;;;88.73;24.70;;;;;;;;;;5070678;28;20238;-79
2020/12/07 02:00:08;;;;;;;98.43;26.43;;;;;;;;;;5070643;28;20199;-80
2020/12/07 02:03:25;;;;;;;87.63;26.63;;;;;;;;;;5075864;28;20226;-80
2020/12/07 02:06:31;;;;;;;101.93;25.57;;;;;;;;;;5074343;28;20252;-79
2020/12/07 02:09:37;;;;;;;87.87;25.43;;;;;;;;;;5073266;28;20207;-80
2020/12/07 02:12:42;;;;;;;91.70;24.37;;;;;;;;;;5059226;28;20221;-81
2020/12/07 02:15:47;;;;;;;98.43;25.60;;;;;;;;;;5060677;28;20322;-81
2020/12/07 02:18:57;;;;;;;89.67;26.20;;;;;;;;;;5054311;28;20241;-80
2020/12/07 02:22:03;;;;;;;96.50;27.40;;;;;;;;;;5055119;28;20325;-81
2020/12/07 02:25:10;;;;;;;94.97;25.50;;;;;;;;;;5053942;28;20253;-80
2020/12/07 02:28:15;;;;;;;84.83;25.23;;;;;;;;;;5061893;28;20218;-81
2020/12/07 02:31:20;;;;;;;96.43;25.80;;;;;;;;;;5062721;28;20234;-81
2020/12/07 02:34:25;;;;;;;97.07;26.27;;;;;;;;;;5057014;28;20223;-81
2020/12/07 02:37:31;;;;;;;98.83;25.90;;;;;;;;;;5056725;28;20210;-79
2020/12/07 02:40:38;;;;;;;97.37;26.27;;;;;;;;;;5056537;28;20211;-79
2020/12/07 02:43:43;;;;;;;109.30;27.57;;;;;;;;;;5059254;28;20436;-81
2020/12/07 02:46:48;;;;;;;97.50;26.50;;;;;;;;;;5061862;28;20202;-81
2020/12/07 02:49:57;;;;;;;110.10;28.07;;;;;;;;;;5063894;28;20284;-79
2020/12/07 02:53:04;;;;;;;106.37;27.13;;;;;;;;;;5055792;28;20261;-81
2020/12/07 02:56:10;;;;;;;99.53;26.73;;;;;;;;;;5058519;28;21644;-80
2020/12/07 02:59:23;;;;;;;123.50;27.53;;;;;;;;;;5051276;28;20214;-80
2020/12/07 03:02:29;;;;;;;116.43;28.63;;;;;;;;;;5052105;28;20230;-80
2020/12/07 03:05:34;;;;;;;118.37;28.47;;;;;;;;;;5051988;28;20203;-80
2020/12/07 03:08:46;;;;;;;111.33;27.00;;;;;;;;;;5053195;28;20215;-80
2020/12/07 03:11:53;;;;;;;115.97;27.17;;;;;;;;;;5052417;28;20955;-80
2020/12/07 03:14:58;;;;;;;116.67;27.33;;;;;;;;;;5057390;28;20206;-79
2020/12/07 03:18:05;;;;;;;119.63;28.83;;;;;;;;;;5059511;28;20285;-79
2020/12/07 03:21:24;;;;;;;115.50;27.30;;;;;;;;;;5059276;28;20207;-80
2020/12/07 03:24:38;;;;;;;131.23;28.67;;;;;;;;;;5062641;28;20276;-79
2020/12/07 03:27:46;;;;;;;119.93;28.50;;;;;;;;;;5061111;28;20247;-80
2020/12/07 03:30:51;;;;;;;130.60;29.10;;;;;;;;;;5063102;28;20713;-80
2020/12/07 03:33:56;;;;;;;130.10;29.40;;;;;;;;;;5067150;28;20238;-80
2020/12/07 03:37:05;;;;;;;124.77;28.60;;;;;;;;;;5071855;28;20187;-80
2020/12/07 03:40:23;;;;;;;131.37;30.23;;;;;;;;;;5064891;28;20289;-80
2020/12/07 03:43:30;;;;;;;123.77;28.63;;;;;;;;;;5058002;28;20704;-80
2020/12/07 03:46:35;;;;;;;132.83;29.40;;;;;;;;;;5057950;28;20421;-80
2020/12/07 03:49:42;;;;;;;118.53;27.23;;;;;;;;;;5058161;28;20210;-80
2020/12/07 03:52:47;;;;;;;124.50;28.40;;;;;;;;;;5057379;28;20226;-80
2020/12/07 03:55:58;;;;;;;124.70;28.93;;;;;;;;;;5058766;28;20207;-79
2020/12/07 03:59:05;;;;;;;127.60;28.67;;;;;;;;;;5053610;28;20222;-80
2020/12/07 04:02:11;;;;;;;120.43;29.70;;;;;;;;;;5054893;28;20292;-79
2020/12/07 04:05:21;;;;;;;128.50;28.20;;;;;;;;;;5054282;28;20296;-79
2020/12/07 04:08:28;;;;;;;136.50;28.53;;;;;;;;;;5054472;28;20215;-79
2020/12/07 04:11:34;;;;;;;134.20;29.47;;;;;;;;;;5056445;28;20251;-78
2020/12/07 04:14:39;;;;;;;125.20;28.93;;;;;;;;;;5059753;28;20206;-79
2020/12/07 04:17:44;;;;;;;138.00;28.37;;;;;;;;;;5075395;28;20211;-80
2020/12/07 04:20:49;;;;;;;130.30;29.17;;;;;;;;;;5076163;28;20191;-79
2020/12/07 04:23:54;;;;;;;132.93;29.67;;;;;;;;;;5053051;28;20235;-79
2020/12/07 04:27:00;;;;;;;130.47;28.83;;;;;;;;;;5053712;28;20233;-78
2020/12/07 04:30:05;;;;;;;135.33;29.40;;;;;;;;;;5053021;28;20219;-78
2020/12/07 04:33:09;;;;;;;140.07;27.37;;;;;;;;;;5053131;28;20222;-78
2020/12/07 04:36:14;;;;;;;138.03;29.30;;;;;;;;;;5056215;28;20246;-81
2020/12/07 04:39:18;;;;;;;141.13;29.50;;;;;;;;;;5055111;28;20207;-81
2020/12/07 04:42:24;;;;;;;140.27;30.40;;;;;;;;;;5051991;28;20785;-78
2020/12/07 04:45:29;;;;;;;142.03;30.27;;;;;;;;;;5053595;28;20682;-81
2020/12/07 04:48:36;;;;;;;137.30;29.50;;;;;;;;;;5047025;28;20210;-80
2020/12/07 04:51:41;;;;;;;140.33;29.00;;;;;;;;;;5054408;28;20210;-80
2020/12/07 04:54:46;;;;;;;141.33;30.50;;;;;;;;;;5049212;28;20208;-81
2020/12/07 04:57:51;;;;;;;139.40;29.00;;;;;;;;;;5055458;28;20248;-81
2020/12/07 05:00:56;;;;;;;145.13;29.00;;;;;;;;;;5052457;28;20388;-78
2020/12/07 05:04:01;;;;;;;148.40;29.47;;;;;;;;;;5052191;28;20235;-78
2020/12/07 05:07:06;;;;;;;142.30;28.57;;;;;;;;;;5055720;28;20235;-81
2020/12/07 05:10:13;;;;;;;131.47;29.40;;;;;;;;;;5058932;28;20211;-80
2020/12/07 05:13:26;;;;;;;151.97;30.63;;;;;;;;;;5059293;28;20607;-82
2020/12/07 05:16:33;;;;;;;140.40;29.00;;;;;;;;;;5039173;28;20264;-80
2020/12/07 05:19:38;;;;;;;147.50;29.00;;;;;;;;;;5059052;28;20353;-81
2020/12/07 05:22:45;;;;;;;127.17;29.03;;;;;;;;;;5056705;28;20730;-81
2020/12/07 05:25:50;;;;;;;141.17;29.03;;;;;;;;;;5057938;28;20628;-81
2020/12/07 05:29:04;;;;;;;144.40;30.10;;;;;;;;;;5056244;28;20235;-80
2020/12/07 05:32:08;;;;;;;143.10;30.43;;;;;;;;;;5056792;28;20249;-81
2020/12/07 05:35:13;;;;;;;146.40;29.17;;;;;;;;;;5058209;28;20219;-81
2020/12/07 05:38:18;;;;;;;139.00;28.70;;;;;;;;;;5067483;28;20227;-80
2020/12/07 05:41:23;;;;;;;143.80;29.37;;;;;;;;;;5066200;28;20279;-80
2020/12/07 05:44:29;;;;;;;133.97;29.33;;;;;;;;;;5058565;28;20234;-81
2020/12/07 05:47:37;;;;;;;152.07;31.27;;;;;;;;;;5070378;28;20219;-80
2020/12/07 05:50:43;;;;;;;121.17;27.43;;;;;;;;;;5067118;28;20218;-81
2020/12/07 05:53:48;;;;;;;129.87;27.10;;;;;;;;;;5065124;28;20227;-80
2020/12/07 05:56:56;;;;;;;143.07;30.07;;;;;;;;;;5054563;28;20211;-80
2020/12/07 06:00:05;;;;;;;135.43;27.60;;;;;;;;;;5060372;28;20619;-80
2020/12/07 06:03:18;;;;;;;127.87;28.17;;;;;;;;;;5059503;28;20215;-80
2020/12/07 06:06:31;;;;;;;115.50;26.60;;;;;;;;;;5063531;28;20557;-80
2020/12/07 06:09:36;;;;;;;126.90;27.37;;;;;;;;;;5058754;28;20202;-79
2020/12/07 06:12:44;;;;;;;123.27;27.47;;;;;;;;;;5074008;28;20301;-80
2020/12/07 06:15:49;;;;;;;128.57;29.33;;;;;;;;;;5069940;28;20286;-81
2020/12/07 06:18:56;;;;;;;120.57;27.27;;;;;;;;;;5074187;28;20217;-80
2020/12/07 06:22:02;;;;;;;123.43;28.77;;;;;;;;;;5059211;28;20218;-81
2020/12/07 06:25:07;;;;;;;123.50;28.53;;;;;;;;;;5074020;28;20210;-80
2020/12/07 06:28:12;;;;;;;115.00;26.63;;;;;;;;;;5060699;28;20691;-82
2020/12/07 06:31:18;;;;;;;137.97;28.77;;;;;;;;;;5064999;28;20203;-79
2020/12/07 06:34:23;;;;;;;113.33;27.00;;;;;;;;;;5060685;28;20234;-79
2020/12/07 06:37:28;;;;;;;121.23;27.23;;;;;;;;;;5062945;28;20756;-80
2020/12/07 06:40:36;;;;;;;125.23;28.90;;;;;;;;;;5060446;28;20280;-80
2020/12/07 06:43:40;;;;;;;165.30;39.17;;;;;;;;;;5063450;28;20231;-79
2020/12/07 06:46:52;;;;;;;144.70;36.47;;;;;;;;;;5070471;28;20267;-80
2020/12/07 06:50:11;;;;;;;140.83;34.93;;;;;;;;;;5075139;28;20215;-80
2020/12/07 06:53:37;;;;;;;114.83;28.77;;;;;;;;;;5064699;28;20298;-79
2020/12/07 06:56:42;;;;;;;129.57;30.67;;;;;;;;;;5063148;28;20206;-81
2020/12/07 06:59:53;;;;;;;126.97;30.57;;;;;;;;;;5057029;28;20318;-80
2020/12/07 07:03:01;;;;;;;110.47;26.97;;;;;;;;;;5062217;28;20274;-80
2020/12/07 07:06:10;;;;;;;115.67;27.63;;;;;;;;;;5065953;28;20202;-81
2020/12/07 07:09:14;;;;;;;108.37;26.53;;;;;;;;;;5052083;28;20214;-80
2020/12/07 07:12:20;;;;;;;117.83;26.93;;;;;;;;;;5055177;28;20349;-80
2020/12/07 07:15:26;;;;;;;138.27;39.00;;;;;;;;;;5057476;28;20586;-79
2020/12/07 07:18:32;;;;;;;122.93;30.97;;;;;;;;;;5065221;28;20241;-79
2020/12/07 07:21:50;;;;;;;110.23;27.90;;;;;;;;;;5059711;28;20199;-79
2020/12/07 07:28:14;;;;;;;106.07;26.60;;;;;;;;;;5048712;28;20194;-80
2020/12/07 07:31:20;;;;;;;99.60;25.03;;;;;;;;;;5057076;28;20222;-78
2020/12/07 07:34:26;;;;;;;140.30;33.53;;;;;;;;;;5056276;28;20264;-79
2020/12/07 07:37:31;;;;;;;122.80;27.83;;;;;;;;;;5057368;28;20248;-79
2020/12/07 07:40:37;;;;;;;104.80;26.40;;;;;;;;;;5060436;28;20380;-79
2020/12/07 07:43:42;;;;;;;103.20;25.67;;;;;;;;;;5055944;28;20272;-79
2020/12/07 07:46:54;;;;;;;100.90;24.73;;;;;;;;;;5054938;28;20218;-80
2020/12/07 08:17:17;;;;;;;118.87;27.97;;;;;;;;;;5060643;28;20230;-80
2020/12/07 08:20:24;;;;;;;103.77;25.30;;;;;;;;;;5057527;28;20210;-80
2020/12/07 08:23:32;;;;;;;97.07;23.23;;;;;;;;;;5069235;28;20218;-78
2020/12/07 08:26:42;;;;;;;101.13;25.80;;;;;;;;;;5076302;28;20195;-78
2020/12/07 08:29:47;;;;;;;94.67;22.23;;;;;;;;;;5071978;28;20568;-78
2020/12/07 08:32:51;;;;;;;80.43;22.67;;;;;;;;;;5060393;28;20231;-80
2020/12/07 08:35:57;;;;;;;86.10;22.83;;;;;;;;;;5057847;28;20226;-81
2020/12/07 08:39:02;;;;;;;80.77;20.30;;;;;;;;;;5057938;28;20195;-80
2020/12/07 08:42:07;;;;;;;71.50;19.00;;;;;;;;;;5057074;28;20713;-80
2020/12/07 08:45:12;;;;;;;71.70;19.47;;;;;;;;;;5060154;28;20238;-80
2020/12/07 08:48:19;;;;;;;78.03;19.87;;;;;;;;;;5060024;28;20579;-80
2020/12/07 08:51:25;;;;;;;74.17;19.67;;;;;;;;;;5057575;28;20215;-81
2020/12/07 08:54:32;;;;;;;68.70;19.83;;;;;;;;;;5058200;28;20227;-79
2020/12/07 08:57:37;;;;;;;71.83;19.30;;;;;;;;;;5057826;28;20289;-81
2020/12/07 09:00:42;;;;;;;76.73;20.57;;;;;;;;;;5061844;28;20211;-80
2020/12/07 09:03:47;;;;;;;72.33;18.83;;;;;;;;;;5074155;28;20229;-80
2020/12/07 09:06:53;;;;;;;66.90;18.27;;;;;;;;;;5073672;28;20211;-80
2020/12/07 09:09:59;;;;;;;55.30;16.87;;;;;;;;;;5074908;28;20324;-80
2020/12/07 09:13:04;;;;;;;58.27;17.63;;;;;;;;;;5062868;28;20222;-80
2020/12/07 09:16:10;;;;;;;65.13;18.60;;;;;;;;;;5076038;28;20248;-79
2020/12/07 09:19:14;;;;;;;71.17;19.40;;;;;;;;;;5068540;28;20210;-79
2020/12/07 09:22:19;;;;;;;60.90;19.60;;;;;;;;;;5065848;28;20232;-80
2020/12/07 09:25:27;;;;;;;65.43;18.27;;;;;;;;;;5077068;28;20202;-80
2020/12/07 09:28:32;;;;;;;66.67;18.63;;;;;;;;;;5078441;28;20192;-80
2020/12/07 09:31:37;;;;;;;60.90;18.03;;;;;;;;;;5078092;28;20271;-79
2020/12/07 09:34:42;;;;;;;51.50;16.40;;;;;;;;;;5070189;28;20202;-80
2020/12/07 09:37:47;;;;;;;54.53;16.47;;;;;;;;;;5061795;28;20226;-80
2020/12/07 09:40:53;;;;;;;43.80;15.63;;;;;;;;;;5061141;28;20686;-79
2020/12/07 09:43:58;;;;;;;40.40;13.70;;;;;;;;;;5063382;28;20394;-78
2020/12/07 09:47:03;;;;;;;42.47;14.13;;;;;;;;;;5073740;28;20281;-79
2020/12/07 09:50:08;;;;;;;50.47;15.20;;;;;;;;;;5044071;28;20223;-80
2020/12/07 09:53:16;;;;;;;54.50;20.43;;;;;;;;;;5052506;28;20315;-78
2020/12/07 09:56:24;;;;;;;52.27;16.60;;;;;;;;;;5060312;28;20437;-80
2020/12/07 09:59:29;;;;;;;49.10;15.90;;;;;;;;;;5059644;28;20211;-80
2020/12/07 10:02:34;;;;;;;46.27;15.83;;;;;;;;;;5061380;28;20239;-80
2020/12/07 10:05:39;;;;;;;54.43;15.83;;;;;;;;;;5060401;28;20195;-80
2020/12/07 10:08:45;;;;;;;48.00;14.70;;;;;;;;;;5066088;28;20238;-81
2020/12/07 10:11:51;;;;;;;46.73;14.17;;;;;;;;;;5061269;28;20346;-81
2020/12/07 10:14:56;;;;;;;41.13;14.03;;;;;;;;;;5066271;28;20219;-80
2020/12/07 10:18:01;;;;;;;40.57;13.67;;;;;;;;;;5064085;28;20394;-80
2020/12/07 10:21:06;;;;;;;42.87;14.60;;;;;;;;;;5057400;28;20217;-81
2020/12/07 10:24:11;;;;;;;40.00;13.90;;;;;;;;;;5058519;28;20230;-81
2020/12/07 10:27:16;;;;;;;44.30;13.17;;;;;;;;;;5056957;28;20217;-78
2020/12/07 10:30:21;;;;;;;30.47;11.50;;;;;;;;;;5056434;28;20199;-79
2020/12/07 10:33:26;;;;;;;27.53;10.60;;;;;;;;;;5068369;28;20231;-80
2020/12/07 10:36:31;;;;;;;38.13;13.37;;;;;;;;;;5059540;28;20223;-79
2020/12/07 10:39:36;;;;;;;30.93;11.33;;;;;;;;;;5057467;28;20330;-80
2020/12/07 10:42:41;;;;;;;31.57;11.53;;;;;;;;;;5058465;28;20230;-81
2020/12/07 10:45:46;;;;;;;31.17;11.37;;;;;;;;;;5059081;28;20651;-81
2020/12/07 10:48:50;;;;;;;33.33;11.77;;;;;;;;;;5052476;28;20285;-81
2020/12/07 10:51:55;;;;;;;36.70;12.53;;;;;;;;;;5059417;28;20207;-80
2020/12/07 10:55:00;;;;;;;34.37;12.30;;;;;;;;;;5059933;28;20537;-80
2020/12/07 10:58:06;;;;;;;27.77;11.33;;;;;;;;;;5058676;28;20293;-79
2020/12/07 11:01:11;;;;;;;29.90;11.57;;;;;;;;;;5066232;28;20333;-79
2020/12/07 11:04:16;;;;;;;30.10;11.20;;;;;;;;;;5061172;28;20231;-80
2020/12/07 11:07:23;;;;;;;31.20;10.77;;;;;;;;;;5065209;28;20801;-81
2020/12/07 11:10:28;;;;;;;32.17;12.33;;;;;;;;;;5065818;28;20203;-80
2020/12/07 11:13:34;;;;;;;33.30;12.33;;;;;;;;;;5060308;28;20269;-80
2020/12/07 11:16:38;;;;;;;31.37;11.70;;;;;;;;;;5058224;28;20248;-80
2020/12/07 11:19:44;;;;;;;28.03;11.03;;;;;;;;;;5058620;28;20604;-79
2020/12/07 11:22:48;;;;;;;28.60;11.30;;;;;;;;;;5052953;28;20725;-79
2020/12/07 11:25:53;;;;;;;27.17;10.67;;;;;;;;;;5065871;28;20210;-79
2020/12/07 11:28:59;;;;;;;29.93;11.17;;;;;;;;;;5053273;28;20218;-81
2020/12/07 11:32:04;;;;;;;32.23;11.60;;;;;;;;;;5061246;28;20682;-81
2020/12/07 11:35:09;;;;;;;26.93;11.33;;;;;;;;;;5059337;28;20210;-80
2020/12/07 11:38:17;;;;;;;29.90;10.23;;;;;;;;;;5058563;28;20317;-79
2020/12/07 11:44:41;;;;;;;32.53;11.53;;;;;;;;;;5064446;28;20266;-80
2020/12/07 11:47:48;;;;;;;32.57;10.77;;;;;;;;;;5067281;28;20211;-80
2020/12/07 11:50:53;;;;;;;30.43;10.87;;;;;;;;;;5055841;28;20211;-82
2020/12/07 11:53:58;;;;;;;29.33;10.90;;;;;;;;;;5054022;28;20235;-80
2020/12/07 11:57:06;;;;;;;29.00;11.50;;;;;;;;;;5058609;28;20233;-81
2020/12/07 12:00:14;;;;;;;26.70;10.93;;;;;;;;;;5057672;28;20654;-81
2020/12/07 12:03:19;;;;;;;29.03;10.63;;;;;;;;;;5059065;28;20239;-80
2020/12/07 12:06:24;;;;;;;25.23;9.70;;;;;;;;;;5058980;28;20627;-80
2020/12/07 12:09:29;;;;;;;28.77;11.47;;;;;;;;;;5057418;28;20272;-80
2020/12/07 12:12:34;;;;;;;27.90;10.27;;;;;;;;;;5058553;28;20245;-80
2020/12/07 12:15:40;;;;;;;26.63;10.60;;;;;;;;;;5057078;28;20249;-80
2020/12/07 12:18:45;;;;;;;31.00;10.80;;;;;;;;;;5057437;28;20206;-80
2020/12/07 12:21:50;;;;;;;28.80;11.43;;;;;;;;;;5056700;28;20202;-81
2020/12/07 12:24:55;;;;;;;26.97;11.17;;;;;;;;;;5053130;28;20226;-80
2020/12/07 12:28:00;;;;;;;25.23;10.37;;;;;;;;;;5061383;28;20198;-80
2020/12/07 12:31:05;;;;;;;29.07;10.30;;;;;;;;;;5074322;28;20207;-79
2020/12/07 12:34:14;;;;;;;30.83;11.43;;;;;;;;;;5065971;28;20222;-81
2020/12/07 12:37:22;;;;;;;30.90;9.83;;;;;;;;;;5053973;28;20214;-78
2020/12/07 12:40:29;;;;;;;29.50;10.97;;;;;;;;;;5052996;28;20292;-82
2020/12/07 12:43:34;;;;;;;28.23;10.00;;;;;;;;;;5057476;28;20226;-81
2020/12/07 12:46:40;;;;;;;29.67;9.60;;;;;;;;;;5057010;28;20210;-81
2020/12/07 12:49:45;;;;;;;24.20;9.57;;;;;;;;;;5055563;28;20219;-81
2020/12/07 12:52:50;;;;;;;25.20;9.13;;;;;;;;;;5056955;28;20246;-80
2020/12/07 12:55:54;;;;;;;25.13;9.10;;;;;;;;;;5055696;28;20206;-80
2020/12/07 12:59:00;;;;;;;30.60;9.33;;;;;;;;;;5052778;28;20222;-81
2020/12/07 13:02:07;;;;;;;26.60;8.90;;;;;;;;;;5056814;28;20211;-81
2020/12/07 13:05:13;;;;;;;26.37;8.90;;;;;;;;;;5056337;28;20238;-81
2020/12/07 13:08:18;;;;;;;28.80;10.03;;;;;;;;;;5053702;28;20232;-79
2020/12/07 13:11:29;;;;;;;25.80;9.10;;;;;;;;;;5050613;28;20214;-80
2020/12/07 13:14:34;;;;;;;24.47;9.53;;;;;;;;;;5054850;28;20211;-81
2020/12/07 13:17:42;;;;;;;27.70;9.20;;;;;;;;;;5066151;28;20261;-82
2020/12/07 13:20:53;;;;;;;28.77;8.67;;;;;;;;;;5061344;28;20191;-79
2020/12/07 13:24:02;;;;;;;26.73;8.43;;;;;;;;;;5061399;28;20233;-80
2020/12/07 13:27:19;;;;;;;24.40;10.07;;;;;;;;;;5050074;28;20207;-80
2020/12/07 13:30:25;;;;;;;30.13;10.10;;;;;;;;;;5055982;28;20199;-80
2020/12/07 13:33:31;;;;;;;23.20;9.40;;;;;;;;;;5054675;28;20242;-81
2020/12/07 13:36:36;;;;;;;30.43;10.63;;;;;;;;;;5058299;28;20207;-80
2020/12/07 13:39:43;;;;;;;29.13;9.50;;;;;;;;;;5071855;28;20194;-81
2020/12/07 13:42:48;;;;;;;28.83;10.90;;;;;;;;;;5073074;28;20223;-79
2020/12/07 13:45:53;;;;;;;28.50;10.43;;;;;;;;;;5072653;28;20203;-81
2020/12/07 13:48:59;;;;;;;26.43;9.40;;;;;;;;;;5069460;28;20214;-79
2020/12/07 13:52:04;;;;;;;31.90;11.60;;;;;;;;;;5072872;28;20210;-80
2020/12/07 13:55:09;;;;;;;30.63;11.37;;;;;;;;;;5077891;28;20258;-80
2020/12/07 13:58:15;;;;;;;28.40;10.50;;;;;;;;;;5071182;28;20211;-80
2020/12/07 14:01:20;;;;;;;23.60;9.80;;;;;;;;;;5061101;28;20211;-81
2020/12/07 14:04:35;;;;;;;31.00;11.50;;;;;;;;;;5080037;28;20246;-81
2020/12/07 14:07:40;;;;;;;35.00;14.17;;;;;;;;;;5061546;28;20199;-80
2020/12/07 14:10:52;;;;;;;30.83;10.53;;;;;;;;;;5055597;28;20294;-81
2020/12/07 14:13:57;;;;;;;22.53;9.33;;;;;;;;;;5040373;28;20620;-81
2020/12/07 14:17:05;;;;;;;27.13;9.33;;;;;;;;;;5055862;28;20320;-81
2020/12/07 14:20:15;;;;;;;27.33;10.03;;;;;;;;;;5063336;28;20348;-79
2020/12/07 14:23:25;;;;;;;26.30;9.77;;;;;;;;;;5052630;28;20235;-79
2020/12/07 14:26:34;;;;;;;25.23;9.20;;;;;;;;;;5059339;28;20582;-81
2020/12/07 14:40:04;;;;;;;25.33;9.43;;;;;;;;;;5060184;28;20230;-79
2020/12/07 14:43:08;;;;;;;26.63;10.00;;;;;;;;;;5057466;28;20231;-80
2020/12/07 14:46:17;;;;;;;27.93;10.60;;;;;;;;;;5071036;28;20178;-78
2020/12/07 14:49:22;;;;;;;22.60;9.03;;;;;;;;;;5056209;28;20379;-80
2020/12/07 14:52:30;;;;;;;26.77;9.90;;;;;;;;;;5059169;28;20748;-80
2020/12/07 14:55:39;;;;;;;28.20;9.70;;;;;;;;;;5066633;28;20207;-81
2020/12/07 15:05:34;;;;;;;28.57;10.97;;;;;;;;;;5057196;28;20284;-81
2020/12/07 15:12:16;;;;;;;27.17;10.83;;;;;;;;;;5058886;28;20222;-81
2020/12/07 15:15:21;;;;;;;33.20;11.60;;;;;;;;;;5059627;28;20217;-81
2020/12/07 15:18:26;;;;;;;32.30;12.27;;;;;;;;;;5058270;28;20357;-81
2020/12/07 15:21:31;;;;;;;42.47;14.10;;;;;;;;;;5053764;28;20216;-81
2020/12/07 15:24:37;;;;;;;30.23;11.53;;;;;;;;;;5054911;28;21122;-81
2020/12/07 15:27:42;;;;;;;28.83;11.23;;;;;;;;;;5055233;28;20217;-79
2020/12/07 15:30:46;;;;;;;33.43;13.33;;;;;;;;;;5050162;28;20214;-75
2020/12/07 15:33:52;;;;;;;34.40;13.57;;;;;;;;;;5053510;28;20622;-75
2020/12/07 15:36:57;;;;;;;31.13;11.07;;;;;;;;;;5052751;28;20264;-75
2020/12/07 15:40:06;;;;;;;37.20;13.53;;;;;;;;;;5055331;28;20331;-75
2020/12/07 15:43:12;;;;;;;41.90;16.23;;;;;;;;;;5063576;28;20250;-75
2020/12/07 15:46:19;;;;;;;33.90;13.43;;;;;;;;;;5061524;28;20206;-76
2020/12/07 15:49:24;;;;;;;35.27;13.87;;;;;;;;;;5052877;28;20214;-76
2020/12/07 15:52:30;;;;;;;52.30;18.20;;;;;;;;;;5064291;28;20321;-74
2020/12/07 15:55:35;;;;;;;36.80;14.50;;;;;;;;;;5055615;28;20198;-77
2020/12/07 15:58:40;;;;;;;39.37;16.90;;;;;;;;;;5051282;28;20215;-76
2020/12/07 16:01:45;;;;;;;33.67;14.50;;;;;;;;;;5049254;28;20191;-74
2020/12/07 16:04:50;;;;;;;41.87;15.60;;;;;;;;;;5052958;28;20469;-75
2020/12/07 16:07:54;;;;;;;46.00;15.67;;;;;;;;;;5051508;28;20267;-75
2020/12/07 16:11:00;;;;;;;37.93;14.93;;;;;;;;;;5047907;28;20214;-75
2020/12/07 16:14:05;;;;;;;34.93;14.33;;;;;;;;;;5054623;28;20234;-75
2020/12/07 16:17:09;;;;;;;34.37;14.00;;;;;;;;;;5053491;28;20261;-74
2020/12/07 16:20:14;;;;;;;35.27;13.70;;;;;;;;;;5047619;28;20243;-76
2020/12/07 16:23:19;;;;;;;41.17;14.70;;;;;;;;;;5051873;28;20227;-76
2020/12/07 16:26:24;;;;;;;42.13;15.13;;;;;;;;;;5048328;28;20211;-76
2020/12/07 16:29:29;;;;;;;38.33;14.77;;;;;;;;;;5055527;28;20294;-76
2020/12/07 16:32:37;;;;;;;40.17;13.53;;;;;;;;;;5053747;28;20226;-74
2020/12/07 16:35:42;;;;;;;37.40;14.00;;;;;;;;;;5050068;28;20207;-76
2020/12/07 16:38:47;;;;;;;40.23;14.13;;;;;;;;;;5047299;28;20575;-74
2020/12/07 16:41:53;;;;;;;42.97;15.50;;;;;;;;;;5051557;28;20227;-75
2020/12/07 16:44:58;;;;;;;60.30;22.10;;;;;;;;;;5054892;28;20245;-76
2020/12/07 16:48:03;;;;;;;43.53;15.97;;;;;;;;;;5056638;28;20594;-74
2020/12/07 16:51:09;;;;;;;43.00;15.60;;;;;;;;;;5045645;28;20207;-75
2020/12/07 16:54:14;;;;;;;54.90;19.90;;;;;;;;;;5056079;28;20249;-78
2020/12/07 16:57:19;;;;;;;163.03;62.17;;;;;;;;;;5049188;28;20207;-77
2020/12/07 17:00:24;;;;;;;49.03;19.13;;;;;;;;;;5049173;28;20202;-75
2020/12/07 17:03:29;;;;;;;74.27;30.13;;;;;;;;;;5047819;28;20729;-74
2020/12/07 17:06:34;;;;;;;49.10;17.67;;;;;;;;;;5049407;28;20222;-74
2020/12/07 17:09:38;;;;;;;45.90;15.90;;;;;;;;;;5050544;28;20211;-75
2020/12/07 17:12:44;;;;;;;41.43;15.03;;;;;;;;;;5046298;28;20730;-75
2020/12/07 17:15:48;;;;;;;47.50;16.03;;;;;;;;;;5054612;28;20246;-74
2020/12/07 17:18:55;;;;;;;42.30;15.33;;;;;;;;;;5048344;28;20751;-75
2020/12/07 17:22:02;;;;;;;42.53;16.67;;;;;;;;;;5047542;28;20253;-76
2020/12/07 17:25:07;;;;;;;53.73;17.33;;;;;;;;;;5047877;28;20600;-74
2020/12/07 17:28:13;;;;;;;37.33;15.33;;;;;;;;;;5053248;28;20210;-75
2020/12/07 17:31:17;;;;;;;42.10;15.00;;;;;;;;;;5048527;28;21072;-74
2020/12/07 17:34:22;;;;;;;47.87;18.50;;;;;;;;;;5057258;28;20219;-75
2020/12/07 17:37:27;;;;;;;40.33;15.27;;;;;;;;;;5054757;28;20210;-74
2020/12/07 17:40:31;;;;;;;38.47;16.13;;;;;;;;;;5053395;28;20732;-75
2020/12/07 17:43:37;;;;;;;37.47;13.43;;;;;;;;;;5055150;28;20257;-76
2020/12/07 17:46:41;;;;;;;39.77;14.90;;;;;;;;;;5059705;28;20230;-75
2020/12/07 17:49:46;;;;;;;37.93;13.87;;;;;;;;;;5053577;28;20272;-75
2020/12/07 17:52:51;;;;;;;40.27;14.53;;;;;;;;;;5055500;28;20242;-75
2020/12/07 17:55:56;;;;;;;42.97;16.33;;;;;;;;;;5054559;28;20215;-74
2020/12/07 17:59:01;;;;;;;37.77;13.63;;;;;;;;;;5054389;28;20245;-75
2020/12/07 18:02:06;;;;;;;39.77;14.80;;;;;;;;;;5056188;28;20620;-75
2020/12/07 18:05:14;;;;;;;42.27;14.53;;;;;;;;;;5057941;28;20271;-74
2020/12/07 18:08:20;;;;;;;37.57;13.83;;;;;;;;;;5053259;28;20595;-72
2020/12/07 18:11:28;;;;;;;38.23;14.60;;;;;;;;;;5055037;28;20337;-73
2020/12/07 18:14:34;;;;;;;37.30;14.67;;;;;;;;;;5044117;28;20617;-72
2020/12/07 18:17:39;;;;;;;39.97;14.77;;;;;;;;;;5056548;28;20252;-72
2020/12/07 18:20:44;;;;;;;43.20;15.67;;;;;;;;;;5055449;28;20214;-71
2020/12/07 18:23:49;;;;;;;48.40;17.20;;;;;;;;;;5053585;28;20718;-72
2020/12/07 18:26:54;;;;;;;46.73;17.97;;;;;;;;;;5048061;28;20211;-74
2020/12/07 18:29:59;;;;;;;46.83;17.63;;;;;;;;;;5057895;28;20257;-73
2020/12/07 18:33:04;;;;;;;42.47;16.33;;;;;;;;;;5034435;28;20591;-72
2020/12/07 18:36:10;;;;;;;50.73;16.83;;;;;;;;;;5065909;28;20233;-73
2020/12/07 18:39:16;;;;;;;52.40;18.23;;;;;;;;;;5053854;28;20211;-72
2020/12/07 18:42:20;;;;;;;48.73;17.53;;;;;;;;;;5054268;28;20581;-73
2020/12/07 18:45:27;;;;;;;41.50;15.60;;;;;;;;;;5055318;28;20230;-71
2020/12/07 18:48:33;;;;;;;41.20;15.50;;;;;;;;;;5053179;28;20685;-73
2020/12/07 18:51:38;;;;;;;39.77;14.80;;;;;;;;;;5056233;28;20207;-72
2020/12/07 18:54:43;;;;;;;46.40;15.93;;;;;;;;;;5068325;28;20234;-72